Portada
METAR-TAF:

METAR-TAF

Aeropuertos :

Ilam, Irán

latitud: 33-35-09N, longitud: 046-24-20E, altitud: 1334 m

Observación

El informe se hizo hace 33 minutos, a las 04:00 UTC
Viento 6 kt del este-sureste
Temperatura -3°C
Humedad 46%
Presión 1020 hPa
Visibilidad 10 km o más
sin nubes por debajo de 1500 m y sin presencia de cumulonimbus.

METAR: OICI 230400Z 12006KT CAVOK M03/M13 Q1020 A3013

Hora: 08:03 (04:33 UTC)

Pronóstico

El informe se hizo hace 5 horas y 23 minutos, a las 23:10 UTC
Pronóstico válido del 23 a las 00 UTC al 24 a las 06 UTC
Viento 8 kt del este-sureste
Visibilidad: 8000 m

TAF: OICI 222310Z 2300/2406 12008KT 8000 NSC

Observaciones y pronósticos meteorológicos de más de 4000 aeropuertos (mensajes METAR y TAF).

Los puntos amarillos y rojos representan las estaciones disponibles.

Ponga el ratón en el punto deseado para ver el nombre de la estación.

Haga clic para ver las observaciones y los pronósticos meteorológicos.

Para cambiar el mapa : haga clic en los botones verdes con una cruz de color negro para hacer un zoom, en el botón verde con un guión para alejar o en las flechas verdes para mapas adyacentes.


METAR-TAF: